CKG weather

Chongqing Jiangbei International Airport
Chongqing, Chongqing Municipality, China

Public forecast

Using degrees Celsius for public forecast. Weather courtesy of forecast.io.

Current aviation weather report (METAR) for Chongqing Jiangbei International Airport

Retrieved 2020/02/29 12:00 UTC (1 hour ago):

ZUCK 291200Z 12001MPS CAVOK 14/10 Q1013 NOSIG

Aviation forecast (TAF) for Chongqing Jiangbei International Airport

Retrieved 2020/02/29 12:03 UTC (1 hour ago):

TAF ZUCK 290830Z 2912/0112 03003MPS 5000 BR SCT030 TX19/0108Z TN10/2921Z